Time;durP1;ratioP1;P1;durP2;ratioP2;P2;SDS_P1;SDS_P2;PMS_P1;PMS_P2;Temp;Humidity;BMP_temperature;BMP_pressure;BME280_temperature;BME280_humidity;BME280_pressure;Samples;Min_cycle;Max_cycle;Signal;HPM_P1;HPM_P2
2023/06/11 00:01:15;;;;;;;13.98;9.75;;;14.00;99.90;;;;;;5008808;28;20471;-83
2023/06/11 00:03:42;;;;;;;10.13;9.13;;;14.10;99.90;;;;;;5010055;28;20062;-84
2023/06/11 00:06:08;;;;;;;11.13;9.95;;;14.00;99.90;;;;;;5012562;28;20503;-84
2023/06/11 00:08:33;;;;;;;12.05;10.00;;;14.00;99.90;;;;;;5011975;28;20108;-83
2023/06/11 00:11:00;;;;;;;13.77;9.93;;;14.00;99.90;;;;;;5011757;28;20129;-84
2023/06/11 00:13:27;;;;;;;13.82;11.10;;;13.90;99.90;;;;;;5011804;28;20022;-83
2023/06/11 00:15:52;;;;;;;13.40;11.35;;;13.90;99.90;;;;;;5011883;28;20014;-83
2023/06/11 00:18:18;;;;;;;11.20;10.05;;;13.90;99.90;;;;;;5011841;28;20071;-83
2023/06/11 00:20:44;;;;;;;17.25;11.15;;;13.90;99.90;;;;;;5013236;28;20364;-83
2023/06/11 00:23:10;;;;;;;12.85;11.43;;;13.90;99.90;;;;;;5011808;28;20029;-83
2023/06/11 00:25:36;;;;;;;12.35;11.05;;;13.90;99.90;;;;;;5013143;28;20026;-83
2023/06/11 00:28:01;;;;;;;14.48;11.35;;;13.90;99.90;;;;;;5011747;28;20025;-83
2023/06/11 00:30:27;;;;;;;17.02;12.13;;;13.80;99.90;;;;;;5011732;28;20053;-84
2023/06/11 00:32:53;;;;;;;13.13;11.50;;;13.80;99.90;;;;;;5012642;28;20042;-84
2023/06/11 00:35:19;;;;;;;15.07;12.80;;;13.80;99.90;;;;;;5011504;28;20383;-85
2023/06/11 00:37:44;;;;;;;15.55;11.85;;;13.80;99.90;;;;;;5012490;28;20067;-85
2023/06/11 00:40:10;;;;;;;15.68;12.23;;;13.90;99.90;;;;;;5011656;28;20068;-86
2023/06/11 00:42:36;;;;;;;16.33;13.25;;;13.80;99.90;;;;;;5011478;28;20057;-86
2023/06/11 00:45:05;;;;;;;18.67;15.10;;;13.80;99.90;;;;;;5012688;28;20077;-84
2023/06/11 00:47:32;;;;;;;17.17;14.65;;;13.80;99.90;;;;;;5012532;28;20029;-83
2023/06/11 00:49:59;;;;;;;20.30;13.60;;;13.80;99.90;;;;;;5012421;28;20037;-82
2023/06/11 00:52:26;;;;;;;19.85;14.30;;;13.80;99.90;;;;;;5011161;28;20045;-81
2023/06/11 00:54:52;;;;;;;18.67;15.43;;;13.80;99.90;;;;;;5012431;28;20105;-82
2023/06/11 00:57:22;;;;;;;18.60;14.50;;;13.80;99.90;;;;;;5011186;28;20033;-82
2023/06/11 00:59:50;;;;;;;18.73;13.65;;;13.80;99.90;;;;;;5011458;28;20525;-81
2023/06/11 01:02:33;;;;;;;20.63;16.27;;;13.70;99.90;;;;;;5011235;28;20041;-82
2023/06/11 01:05:01;;;;;;;17.80;15.32;;;13.70;99.90;;;;;;5012542;28;20026;-82
2023/06/11 01:07:34;;;;;;;19.00;14.93;;;13.70;99.90;;;;;;5011034;28;20022;-82
2023/06/11 01:10:00;;;;;;;19.73;15.38;;;13.70;99.90;;;;;;5012334;28;20045;-81
2023/06/11 01:12:25;;;;;;;20.58;15.50;;;13.60;99.90;;;;;;5010949;28;20090;-82
2023/06/11 01:14:52;;;;;;;18.48;14.85;;;13.60;99.90;;;;;;5012146;28;20034;-81
2023/06/11 01:17:40;;;;;;;22.30;15.38;;;13.70;99.90;;;;;;5012028;28;20022;-82
2023/06/11 01:20:19;;;;;;;19.38;15.38;;;13.70;99.90;;;;;;5014164;28;20029;-82
2023/06/11 01:23:00;;;;;;;19.80;14.77;;;13.70;99.90;;;;;;5010996;28;20045;-82
2023/06/11 01:25:37;;;;;;;19.80;14.50;;;13.80;99.90;;;;;;5010949;28;20029;-82
2023/06/11 01:28:08;;;;;;;18.50;16.42;;;13.80;99.90;;;;;;5010739;28;20025;-82
2023/06/11 01:30:37;;;;;;;16.30;14.32;;;13.80;99.90;;;;;;5010708;28;20094;-82
2023/06/11 01:33:05;;;;;;;19.23;16.27;;;13.90;99.90;;;;;;5010495;28;20026;-82
2023/06/11 01:35:33;;;;;;;21.83;17.00;;;13.90;99.90;;;;;;5010537;28;20030;-82
2023/06/11 01:37:59;;;;;;;20.50;16.60;;;13.90;99.90;;;;;;5010511;28;20479;-82
2023/06/11 01:40:26;;;;;;;21.85;16.45;;;13.90;99.90;;;;;;5010186;28;20025;-81
2023/06/11 01:42:52;;;;;;;19.88;16.40;;;14.00;99.90;;;;;;5012065;28;20045;-81
2023/06/11 01:45:18;;;;;;;18.95;15.93;;;14.00;99.90;;;;;;5011028;28;20018;-82
2023/06/11 01:47:48;;;;;;;19.33;15.80;;;14.00;99.90;;;;;;5010486;28;20364;-82
2023/06/11 01:50:15;;;;;;;19.40;16.85;;;13.90;99.90;;;;;;5010172;28;20060;-83
2023/06/11 01:52:41;;;;;;;19.42;15.98;;;13.90;99.90;;;;;;5010307;28;20099;-81
2023/06/11 01:55:08;;;;;;;18.75;15.15;;;13.90;99.90;;;;;;5010380;28;20030;-82
2023/06/11 01:57:34;;;;;;;20.65;16.40;;;13.80;99.90;;;;;;5011581;28;20033;-82
2023/06/11 02:00:00;;;;;;;18.52;16.27;;;13.80;99.90;;;;;;5011996;28;20067;-81
2023/06/11 02:02:29;;;;;;;21.40;16.42;;;13.70;99.90;;;;;;5011514;28;20049;-82
2023/06/11 02:04:54;;;;;;;20.10;15.95;;;13.70;99.90;;;;;;5010342;28;20026;-81
2023/06/11 02:07:20;;;;;;;19.88;16.85;;;13.60;99.90;;;;;;5010304;28;20435;-81
2023/06/11 02:09:46;;;;;;;20.35;16.95;;;13.60;99.90;;;;;;5010117;28;20026;-83
2023/06/11 02:12:12;;;;;;;22.13;18.25;;;13.60;99.90;;;;;;5009923;28;20049;-84
2023/06/11 02:14:37;;;;;;;20.67;16.45;;;13.50;99.90;;;;;;5010076;28;20057;-81
2023/06/11 02:17:03;;;;;;;18.50;16.17;;;13.50;99.90;;;;;;5009944;28;20030;-83
2023/06/11 02:19:28;;;;;;;24.60;18.38;;;13.50;99.90;;;;;;5009864;28;20018;-84
2023/06/11 02:21:54;;;;;;;22.23;16.90;;;13.50;99.90;;;;;;5011627;28;20026;-81
2023/06/11 02:24:20;;;;;;;20.83;15.90;;;13.50;99.90;;;;;;5010065;28;20030;-82
2023/06/11 02:26:45;;;;;;;19.52;16.83;;;13.40;99.90;;;;;;5011149;28;20503;-81
2023/06/11 02:29:11;;;;;;;19.52;15.95;;;13.40;99.90;;;;;;5009491;28;20037;-80
2023/06/11 02:31:36;;;;;;;23.00;17.25;;;13.50;99.90;;;;;;5011162;28;20571;-81
2023/06/11 02:34:02;;;;;;;21.10;16.90;;;13.50;99.90;;;;;;5010983;28;20049;-82
2023/06/11 02:36:27;;;;;;;21.38;17.17;;;13.50;99.90;;;;;;5009161;28;20018;-82
2023/06/11 02:38:53;;;;;;;25.08;18.00;;;13.50;99.90;;;;;;5009606;28;20033;-80
2023/06/11 02:41:19;;;;;;;21.63;16.42;;;13.60;99.90;;;;;;5011064;28;20014;-81
2023/06/11 02:43:44;;;;;;;19.55;16.77;;;13.60;99.90;;;;;;5011141;28;20022;-83
2023/06/11 02:46:10;;;;;;;22.88;17.25;;;13.60;99.90;;;;;;5009739;28;20022;-83
2023/06/11 02:48:36;;;;;;;21.90;16.40;;;13.60;99.90;;;;;;5010968;28;20108;-83
2023/06/11 02:51:01;;;;;;;22.13;16.50;;;13.60;99.90;;;;;;5009319;28;20045;-83
2023/06/11 02:53:27;;;;;;;22.08;16.25;;;13.70;99.90;;;;;;5009535;28;20026;-81
2023/06/11 02:55:52;;;;;;;20.10;14.75;;;13.70;99.90;;;;;;5010764;28;20025;-81
2023/06/11 02:58:18;;;;;;;21.23;16.38;;;13.70;99.90;;;;;;5009338;28;20030;-81
2023/06/11 03:00:44;;;;;;;17.63;15.13;;;13.70;99.90;;;;;;5009548;28;20067;-84
2023/06/11 03:03:10;;;;;;;17.90;13.95;;;13.70;99.90;;;;;;5010862;28;20104;-82
2023/06/11 03:05:35;;;;;;;18.88;14.85;;;13.80;99.90;;;;;;5010961;28;20110;-81
2023/06/11 03:08:01;;;;;;;16.38;14.68;;;13.80;99.90;;;;;;5010669;28;20087;-82
2023/06/11 03:10:28;;;;;;;19.27;16.25;;;13.80;99.90;;;;;;5010720;28;20071;-83
2023/06/11 03:12:56;;;;;;;22.20;14.65;;;13.80;99.90;;;;;;5009178;28;20044;-82
2023/06/11 03:15:22;;;;;;;17.00;14.52;;;13.80;99.90;;;;;;5010447;28;20109;-82
2023/06/11 03:17:48;;;;;;;17.05;14.23;;;13.80;99.90;;;;;;5009102;28;20525;-81
2023/06/11 03:20:13;;;;;;;16.80;14.52;;;13.80;99.90;;;;;;5010855;28;20037;-81
2023/06/11 03:22:39;;;;;;;22.10;15.20;;;13.90;99.90;;;;;;5009417;28;20187;-82
2023/06/11 03:25:05;;;;;;;18.75;15.30;;;13.90;99.90;;;;;;5009317;28;20109;-82
2023/06/11 03:27:31;;;;;;;18.73;14.02;;;13.90;99.90;;;;;;5009061;28;20109;-83
2023/06/11 03:29:57;;;;;;;16.92;14.48;;;13.90;99.90;;;;;;5008983;28;20179;-81
2023/06/11 03:32:23;;;;;;;20.10;14.80;;;13.90;99.90;;;;;;5010270;28;20030;-81
2023/06/11 03:34:51;;;;;;;19.23;15.40;;;14.00;99.90;;;;;;5010280;28;20092;-84
2023/06/11 03:37:17;;;;;;;21.38;14.93;;;14.00;99.90;;;;;;5009651;28;20030;-81
2023/06/11 03:39:43;;;;;;;19.40;14.95;;;14.00;99.90;;;;;;5011148;28;20022;-84
2023/06/11 03:42:09;;;;;;;17.42;14.23;;;14.00;99.90;;;;;;5012735;28;20036;-85
2023/06/11 03:44:35;;;;;;;18.67;14.60;;;14.10;99.90;;;;;;5012395;28;20475;-85
2023/06/11 03:47:01;;;;;;;18.27;14.00;;;14.10;99.90;;;;;;5013670;28;20029;-82
2023/06/11 03:49:26;;;;;;;17.17;14.57;;;14.10;99.90;;;;;;5012173;28;20014;-82
2023/06/11 03:51:52;;;;;;;18.42;14.43;;;14.10;99.90;;;;;;5013374;28;20132;-84
2023/06/11 03:54:17;;;;;;;16.48;14.70;;;14.20;99.90;;;;;;5013434;28;20025;-82
2023/06/11 03:56:43;;;;;;;21.90;14.77;;;14.20;99.90;;;;;;5012139;28;20022;-82
2023/06/11 03:59:08;;;;;;;17.58;14.68;;;14.20;99.90;;;;;;5013679;28;20409;-82
2023/06/11 04:01:34;;;;;;;17.30;14.27;;;14.20;99.90;;;;;;5013397;28;20071;-82
2023/06/11 04:04:00;;;;;;;18.23;13.23;;;14.20;99.90;;;;;;5013219;28;20025;-83
2023/06/11 04:06:27;;;;;;;17.80;15.48;;;14.20;99.90;;;;;;5013244;28;20018;-83
2023/06/11 04:08:53;;;;;;;17.50;14.40;;;14.20;99.90;;;;;;5011918;28;20022;-82
2023/06/11 04:11:19;;;;;;;16.60;13.60;;;14.20;99.90;;;;;;5011817;28;20154;-82
2023/06/11 04:13:49;;;;;;;16.45;13.50;;;14.20;99.90;;;;;;5011815;28;20045;-82
2023/06/11 04:16:16;;;;;;;18.77;14.13;;;14.20;99.90;;;;;;5011872;28;20041;-82
2023/06/11 04:18:41;;;;;;;14.45;13.02;;;14.30;99.90;;;;;;5013159;28;20478;-82
2023/06/11 04:21:07;;;;;;;15.85;13.73;;;14.30;99.90;;;;;;5013381;28;20143;-82
2023/06/11 04:23:33;;;;;;;16.20;13.40;;;14.30;99.90;;;;;;5011867;28;20029;-82
2023/06/11 04:25:58;;;;;;;14.35;12.70;;;14.40;99.90;;;;;;5011776;28;20022;-83
2023/06/11 04:28:26;;;;;;;15.48;13.13;;;14.40;99.90;;;;;;5012979;28;20022;-83
2023/06/11 04:30:52;;;;;;;16.02;13.02;;;14.40;99.90;;;;;;5012008;28;20085;-83
2023/06/11 04:33:17;;;;;;;17.65;13.65;;;14.40;99.90;;;;;;5012830;28;20030;-83
2023/06/11 04:35:43;;;;;;;16.65;12.85;;;14.40;99.90;;;;;;5011617;28;20403;-83
2023/06/11 04:38:10;;;;;;;15.98;13.75;;;14.50;99.90;;;;;;5011786;28;20026;-83
2023/06/11 04:40:36;;;;;;;21.70;13.93;;;14.50;99.90;;;;;;5011803;28;20475;-83
2023/06/11 04:43:01;;;;;;;18.02;13.32;;;14.50;99.90;;;;;;5012911;28;20079;-83
2023/06/11 04:45:28;;;;;;;18.25;13.93;;;14.60;99.90;;;;;;5012667;28;20491;-83
2023/06/11 04:47:54;;;;;;;19.33;13.05;;;14.60;99.90;;;;;;5011757;28;20113;-82
2023/06/11 04:50:22;;;;;;;14.55;12.27;;;14.60;99.90;;;;;;5010650;28;20077;-83
2023/06/11 04:52:51;;;;;;;14.73;13.05;;;14.70;99.90;;;;;;5011084;28;20128;-83
2023/06/11 04:55:18;;;;;;;14.60;12.73;;;14.70;99.90;;;;;;5012441;28;20071;-83
2023/06/11 04:57:45;;;;;;;19.55;12.75;;;14.60;99.90;;;;;;5011785;28;20467;-83
2023/06/11 05:00:11;;;;;;;16.60;13.25;;;14.70;99.90;;;;;;5011868;28;20053;-83
2023/06/11 05:02:38;;;;;;;14.23;12.73;;;14.70;99.90;;;;;;5031197;28;20390;-84
2023/06/11 05:05:06;;;;;;;14.20;12.50;;;14.80;99.90;;;;;;5031023;28;20025;-82
2023/06/11 05:07:32;;;;;;;13.80;12.05;;;14.80;99.90;;;;;;5032051;28;20053;-84
2023/06/11 05:10:01;;;;;;;14.52;12.65;;;14.80;99.90;;;;;;5030827;28;20025;-83
2023/06/11 05:12:27;;;;;;;14.38;12.88;;;14.80;99.90;;;;;;5031737;28;20040;-83
2023/06/11 05:14:52;;;;;;;16.25;13.10;;;14.90;99.90;;;;;;5031952;28;20021;-84
2023/06/11 05:17:18;;;;;;;16.05;12.35;;;15.00;99.90;;;;;;5030566;28;20029;-84
2023/06/11 05:19:44;;;;;;;15.98;12.00;;;15.00;99.90;;;;;;5032024;28;20029;-82
2023/06/11 05:22:09;;;;;;;14.07;11.73;;;15.10;99.90;;;;;;5030768;28;20025;-83
2023/06/11 05:24:35;;;;;;;12.68;10.55;;;15.10;99.90;;;;;;5031970;28;20386;-84
2023/06/11 05:27:03;;;;;;;11.90;10.25;;;15.20;99.90;;;;;;5031479;28;20532;-84
2023/06/11 05:29:29;;;;;;;14.73;11.15;;;15.30;99.90;;;;;;5030409;28;20026;-84
2023/06/11 05:31:56;;;;;;;14.38;10.70;;;15.50;99.90;;;;;;5020955;28;20037;-84
2023/06/11 05:34:22;;;;;;;12.20;10.80;;;15.60;99.90;;;;;;5019379;28;20383;-85
2023/06/11 05:36:49;;;;;;;13.52;9.27;;;15.60;99.90;;;;;;5019824;28;20033;-83
2023/06/11 05:39:15;;;;;;;13.52;9.82;;;15.60;99.90;;;;;;5020904;28;20014;-82
2023/06/11 05:41:41;;;;;;;12.05;10.85;;;15.70;99.90;;;;;;5020696;28;20074;-82
2023/06/11 05:44:07;;;;;;;14.38;10.07;;;15.90;99.90;;;;;;5019912;28;20025;-83
2023/06/11 05:46:32;;;;;;;10.68;9.57;;;15.80;99.90;;;;;;5022027;28;20039;-83
2023/06/11 05:48:59;;;;;;;12.18;10.60;;;15.70;99.90;;;;;;5024201;28;20112;-82
2023/06/11 05:51:24;;;;;;;14.07;9.98;;;15.70;99.90;;;;;;5031130;27;20049;-82
2023/06/11 05:53:50;;;;;;;11.20;9.93;;;15.80;99.90;;;;;;5029894;28;20382;-82
2023/06/11 05:56:16;;;;;;;13.13;9.40;;;16.00;99.90;;;;;;5029825;28;20060;-83
2023/06/11 05:58:42;;;;;;;13.38;8.93;;;16.10;99.90;;;;;;5031133;28;20108;-83
2023/06/11 06:01:08;;;;;;;10.82;9.00;;;16.10;99.90;;;;;;5031101;28;20017;-83
2023/06/11 06:03:35;;;;;;;11.23;9.40;;;16.30;99.90;;;;;;5028762;28;20045;-82
2023/06/11 06:06:02;;;;;;;11.15;10.05;;;16.30;99.90;;;;;;5029755;28;20037;-82
2023/06/11 06:08:28;;;;;;;12.60;10.20;;;16.20;99.90;;;;;;5026098;28;20014;-82
2023/06/11 06:10:55;;;;;;;13.48;9.77;;;16.20;99.90;;;;;;5010046;28;20026;-83
2023/06/11 06:13:23;;;;;;;11.85;9.80;;;16.40;99.90;;;;;;5011177;28;20078;-83
2023/06/11 06:15:48;;;;;;;11.63;8.35;;;16.20;99.90;;;;;;5013437;28;20581;-82
2023/06/11 06:18:15;;;;;;;10.38;9.38;;;16.20;99.90;;;;;;5027885;28;20027;-83
2023/06/11 06:20:41;;;;;;;9.90;8.30;;;16.40;99.90;;;;;;5030963;28;20029;-83
2023/06/11 06:23:07;;;;;;;10.95;9.32;;;16.60;99.90;;;;;;5029245;28;20029;-83
2023/06/11 06:25:33;;;;;;;10.15;8.85;;;16.70;99.90;;;;;;5029550;28;20024;-82
2023/06/11 06:27:59;;;;;;;11.90;8.85;;;16.60;99.90;;;;;;5029450;28;20045;-83
2023/06/11 06:30:25;;;;;;;10.80;8.23;;;16.70;99.90;;;;;;5030750;28;20017;-83
2023/06/11 06:32:50;;;;;;;12.23;8.18;;;16.70;99.90;;;;;;5029167;28;20030;-82
2023/06/11 06:35:16;;;;;;;10.75;8.95;;;16.50;99.90;;;;;;5030410;28;20074;-83
2023/06/11 06:37:42;;;;;;;12.02;9.00;;;16.60;99.90;;;;;;5029504;28;20124;-83
2023/06/11 06:40:08;;;;;;;12.93;9.38;;;16.70;99.90;;;;;;5029339;28;20024;-82
2023/06/11 06:42:34;;;;;;;11.05;9.95;;;16.80;99.90;;;;;;5030351;28;20018;-84
2023/06/11 06:45:00;;;;;;;12.77;8.70;;;16.70;99.90;;;;;;5022398;28;20383;-83
2023/06/11 06:47:25;;;;;;;9.07;7.93;;;16.50;99.90;;;;;;5018314;28;20415;-83
2023/06/11 06:49:51;;;;;;;10.00;8.35;;;16.50;99.90;;;;;;5020178;28;20423;-86
2023/06/11 06:52:16;;;;;;;14.90;8.68;;;16.60;99.90;;;;;;5019764;28;20597;-83
2023/06/11 06:54:43;;;;;;;9.52;7.25;;;16.70;99.90;;;;;;5018971;28;20026;-83
2023/06/11 06:57:09;;;;;;;9.63;8.52;;;16.90;99.90;;;;;;5017547;28;20394;-84
2023/06/11 06:59:35;;;;;;;10.70;8.15;;;17.00;99.90;;;;;;5019125;28;20032;-83
2023/06/11 07:02:01;;;;;;;10.43;9.30;;;17.00;99.90;;;;;;5018726;28;20109;-84
2023/06/11 07:04:26;;;;;;;10.98;8.52;;;16.70;99.90;;;;;;5018139;28;20101;-83
2023/06/11 07:06:52;;;;;;;8.93;8.10;;;16.90;99.90;;;;;;5015095;28;20415;-84
2023/06/11 07:09:17;;;;;;;8.23;6.65;;;17.10;99.90;;;;;;5019416;28;20025;-82
2023/06/11 07:11:43;;;;;;;12.20;6.93;;;17.50;99.90;;;;;;5017678;28;20482;-82
2023/06/11 07:14:09;;;;;;;9.55;7.65;;;17.70;99.90;;;;;;5018211;28;20379;-82
2023/06/11 07:16:35;;;;;;;9.52;7.72;;;18.00;99.90;;;;;;5018184;28;20041;-84
2023/06/11 07:19:00;;;;;;;9.45;8.23;;;18.20;99.90;;;;;;5023792;28;20025;-83
2023/06/11 07:21:26;;;;;;;7.47;6.78;;;18.10;99.90;;;;;;5022932;28;20026;-83
2023/06/11 07:23:51;;;;;;;9.85;7.60;;;18.50;99.90;;;;;;5012504;28;20022;-83
2023/06/11 07:26:18;;;;;;;7.47;6.78;;;18.50;99.90;;;;;;5012824;28;20410;-82
2023/06/11 07:28:43;;;;;;;7.47;6.68;;;18.70;99.90;;;;;;5015376;28;20479;-83
2023/06/11 07:31:09;;;;;;;7.70;7.00;;;19.00;97.80;;;;;;5013743;28;20033;-82
2023/06/11 07:33:35;;;;;;;9.57;6.80;;;19.30;91.60;;;;;;5013751;28;20380;-82
2023/06/11 07:36:01;;;;;;;9.25;7.43;;;19.20;91.70;;;;;;5012943;28;20022;-86
2023/06/11 07:38:26;;;;;;;14.07;7.85;;;19.10;95.80;;;;;;5012711;28;20018;-85
2023/06/11 07:40:52;;;;;;;7.70;6.90;;;19.20;95.80;;;;;;5013744;28;20166;-83
2023/06/11 07:43:18;;;;;;;7.80;7.00;;;19.20;91.10;;;;;;5012273;28;20018;-84
2023/06/11 07:45:44;;;;;;;7.68;6.80;;;19.30;91.30;;;;;;5012483;28;20029;-85
2023/06/11 07:48:10;;;;;;;9.27;7.13;;;18.60;91.80;;;;;;5016670;28;20375;-84
2023/06/11 07:50:37;;;;;;;9.90;6.90;;;18.20;95.80;;;;;;5012516;28;20401;-85
2023/06/11 07:53:03;;;;;;;7.20;6.03;;;18.10;93.00;;;;;;5013536;28;20479;-85
2023/06/11 07:55:29;;;;;;;7.55;6.38;;;18.10;99.20;;;;;;5013660;28;20072;-84
2023/06/11 07:57:55;;;;;;;10.32;6.70;;;18.10;96.40;;;;;;5012428;28;20474;-83
2023/06/11 08:00:22;;;;;;;9.07;7.78;;;18.10;97.30;;;;;;5012009;28;20037;-85
2023/06/11 08:02:47;;;;;;;9.85;7.20;;;18.00;95.60;;;;;;5012071;28;20026;-84
2023/06/11 08:05:17;;;;;;;8.68;6.75;;;18.00;99.90;;;;;;5012166;28;20032;-84
2023/06/11 08:07:44;;;;;;;7.78;6.70;;;18.10;99.90;;;;;;5013211;28;20044;-82
2023/06/11 08:10:10;;;;;;;7.32;6.28;;;17.90;99.70;;;;;;5011654;28;20387;-81
2023/06/11 08:12:36;;;;;;;9.05;7.18;;;17.90;99.90;;;;;;5027060;28;20037;-81
2023/06/11 08:15:02;;;;;;;10.35;6.63;;;18.30;97.50;;;;;;5115822;27;20027;-81
2023/06/11 08:17:28;;;;;;;5.45;4.43;;;18.60;91.60;;;;;;5142055;27;20035;-81
2023/06/11 08:19:54;;;;;;;9.75;6.65;;;18.70;87.90;;;;;;5145889;27;20026;-82
2023/06/11 08:22:19;;;;;;;8.57;6.50;;;18.90;85.70;;;;;;5137217;27;20030;-81
2023/06/11 08:24:45;;;;;;;8.15;6.22;;;18.90;85.00;;;;;;5135206;27;20023;-81
2023/06/11 08:27:12;;;;;;;7.28;5.72;;;18.90;82.50;;;;;;5136194;27;20037;-81
2023/06/11 08:29:38;;;;;;;7.15;6.03;;;19.10;80.10;;;;;;5136987;27;20027;-81
2023/06/11 08:32:04;;;;;;;7.35;6.00;;;19.50;82.40;;;;;;5135424;27;20530;-79
2023/06/11 08:34:30;;;;;;;10.38;6.57;;;19.60;79.90;;;;;;5135414;27;20035;-83
2023/06/11 08:36:56;;;;;;;6.97;5.50;;;19.70;78.10;;;;;;5134821;27;20023;-82
2023/06/11 08:39:22;;;;;;;6.63;5.93;;;19.30;76.70;;;;;;5136486;27;20506;-82
2023/06/11 08:41:47;;;;;;;7.93;5.63;;;19.40;77.90;;;;;;5135662;27;20031;-82
2023/06/11 08:44:14;;;;;;;8.85;5.15;;;19.20;78.70;;;;;;5136650;27;20045;-82
2023/06/11 08:46:44;;;;;;;5.80;5.10;;;19.00;78.50;;;;;;5135292;27;20027;-82
2023/06/11 08:49:20;;;;;;;7.40;5.63;;;19.20;77.90;;;;;;5135707;27;20071;-82
2023/06/11 08:51:47;;;;;;;5.93;5.38;;;19.70;79.50;;;;;;5135108;27;20508;-82
2023/06/11 08:54:13;;;;;;;8.07;5.03;;;20.20;75.70;;;;;;5135233;27;20376;-82
2023/06/11 08:56:39;;;;;;;6.75;5.38;;;20.00;70.90;;;;;;5134301;27;20027;-83
2023/06/11 08:59:06;;;;;;;6.80;5.22;;;20.10;71.70;;;;;;5132819;27;20030;-83
2023/06/11 09:01:32;;;;;;;7.63;5.00;;;20.00;71.80;;;;;;5133335;27;20418;-83
2023/06/11 09:03:58;;;;;;;7.75;5.22;;;19.80;71.40;;;;;;5133937;27;20045;-82
2023/06/11 09:06:23;;;;;;;8.40;5.47;;;19.80;72.80;;;;;;5134112;27;20015;-84
2023/06/11 09:09:05;;;;;;;7.32;6.25;;;19.60;75.00;;;;;;5051396;27;20033;-83
2023/06/11 09:11:34;;;;;;;6.63;5.72;;;19.40;78.70;;;;;;5073944;28;20462;-83
2023/06/11 09:14:03;;;;;;;7.60;5.50;;;19.40;75.10;;;;;;5039123;28;20034;-82
2023/06/11 09:16:38;;;;;;;6.18;5.57;;;19.60;75.30;;;;;;5029008;28;20026;-83
2023/06/11 09:19:04;;;;;;;6.50;5.13;;;19.80;73.50;;;;;;5029424;28;20043;-82
2023/06/11 09:21:29;;;;;;;6.90;5.15;;;20.30;73.40;;;;;;5027695;28;20033;-82
2023/06/11 09:23:55;;;;;;;5.95;5.35;;;20.60;70.30;;;;;;5027382;28;20070;-82
2023/06/11 09:26:21;;;;;;;6.43;4.97;;;20.60;68.00;;;;;;5027941;28;20559;-83
2023/06/11 09:28:46;;;;;;;6.47;5.00;;;20.60;67.80;;;;;;5029348;28;20468;-83
2023/06/11 09:31:12;;;;;;;5.70;4.97;;;20.80;67.70;;;;;;5032380;28;20402;-83
2023/06/11 09:33:38;;;;;;;6.90;5.25;;;20.70;69.20;;;;;;5028509;28;20029;-83
2023/06/11 09:36:04;;;;;;;6.05;5.18;;;20.70;70.50;;;;;;5029747;28;20085;-83
2023/06/11 09:38:33;;;;;;;8.05;5.90;;;20.70;70.10;;;;;;5029483;28;20239;-83
2023/06/11 09:40:59;;;;;;;5.85;5.18;;;20.40;70.60;;;;;;5028066;28;20030;-83
2023/06/11 09:43:25;;;;;;;5.93;5.25;;;19.90;71.30;;;;;;5028094;28;20032;-83
2023/06/11 09:45:53;;;;;;;7.80;5.75;;;20.10;72.50;;;;;;5030016;28;20053;-84
2023/06/11 09:48:25;;;;;;;6.85;5.43;;;20.10;70.70;;;;;;5029870;28;20024;-83
2023/06/11 09:50:51;;;;;;;;;;;20.00;71.60;;;;;;5030296;28;20224;-83
2023/06/11 09:53:22;;;;;;;5.80;4.93;;;20.10;70.70;;;;;;5035709;28;20274;-83
2023/06/11 09:55:50;;;;;;;7.82;5.45;;;19.90;71.80;;;;;;5031338;28;20056;-81
2023/06/11 09:58:22;;;;;;;6.38;4.82;;;20.20;70.50;;;;;;5029761;28;20017;-83
2023/06/11 10:00:58;;;;;;;4.85;4.40;;;20.60;68.80;;;;;;5028945;28;20041;-83
2023/06/11 10:03:24;;;;;;;5.50;4.80;;;20.90;67.70;;;;;;5027852;28;20029;-82
2023/06/11 10:05:49;;;;;;;7.35;5.25;;;20.70;66.70;;;;;;5029120;28;20022;-83
2023/06/11 10:08:21;;;;;;;6.25;5.20;;;20.20;68.40;;;;;;5026836;28;20019;-82
2023/06/11 10:10:51;;;;;;;6.05;5.47;;;19.90;68.70;;;;;;5029497;28;20018;-81
2023/06/11 10:13:55;;;;;;;6.88;5.10;;;19.70;70.10;;;;;;5030736;28;20040;-82
2023/06/11 10:16:21;;;;;;;6.10;5.50;;;19.60;70.40;;;;;;5035832;28;20094;-82
2023/06/11 10:18:46;;;;;;;6.88;5.05;;;20.10;71.80;;;;;;5029548;28;20018;-82
2023/06/11 10:21:12;;;;;;;11.70;5.68;;;20.60;70.40;;;;;;5030861;28;20136;-82
2023/06/11 10:23:42;;;;;;;7.68;5.35;;;20.80;67.80;;;;;;5033129;28;20030;-83
2023/06/11 10:26:11;;;;;;;10.82;5.03;;;20.70;66.90;;;;;;5029626;28;20025;-81
2023/06/11 10:28:40;;;;;;;5.78;4.57;;;20.40;66.70;;;;;;5030683;28;20030;-83
2023/06/11 10:31:06;;;;;;;7.65;4.80;;;20.70;68.00;;;;;;5029703;28;20021;-83
2023/06/11 10:33:44;;;;;;;5.95;4.55;;;20.80;65.10;;;;;;5029247;28;20048;-82
2023/06/11 10:36:35;;;;;;;8.00;4.72;;;20.80;64.30;;;;;;5030365;28;20049;-81
2023/06/11 10:39:05;;;;;;;5.38;4.88;;;20.90;66.40;;;;;;5032044;28;20125;-81
2023/06/11 10:41:31;;;;;;;6.47;5.05;;;21.10;65.20;;;;;;5029085;28;20025;-82
2023/06/11 10:44:00;;;;;;;11.75;4.68;;;21.30;65.00;;;;;;5028918;28;20021;-81
2023/06/11 10:46:25;;;;;;;5.10;4.63;;;20.90;64.20;;;;;;5029169;28;20022;-82
2023/06/11 10:48:53;;;;;;;5.05;4.60;;;20.90;64.00;;;;;;5028564;28;20032;-81
2023/06/11 10:51:19;;;;;;;5.45;4.20;;;21.20;64.10;;;;;;5030785;28;20133;-82
2023/06/11 10:53:58;;;;;;;5.47;4.93;;;21.40;62.60;;;;;;5030416;28;20347;-81
2023/06/11 10:56:25;;;;;;;7.95;5.07;;;21.60;63.30;;;;;;5028829;28;20494;-83
2023/06/11 10:58:52;;;;;;;6.93;4.20;;;21.10;62.00;;;;;;5025373;28;20045;-82
2023/06/11 11:01:23;;;;;;;6.65;4.00;;;21.10;62.90;;;;;;5026307;28;20025;-83
2023/06/11 11:03:50;;;;;;;5.70;5.00;;;21.30;62.90;;;;;;5026238;28;20025;-83
2023/06/11 11:06:26;;;;;;;5.53;4.40;;;21.30;63.00;;;;;;5027669;28;20037;-83
2023/06/11 11:08:53;;;;;;;5.32;4.82;;;21.00;62.10;;;;;;5027295;28;20021;-82
2023/06/11 11:11:20;;;;;;;5.18;4.68;;;21.00;63.00;;;;;;5027526;28;20063;-81
2023/06/11 11:13:46;;;;;;;7.30;4.72;;;20.90;63.90;;;;;;5006977;28;20033;-83
2023/06/11 11:16:11;;;;;;;5.20;4.40;;;21.20;64.30;;;;;;5011151;28;20034;-83
2023/06/11 11:18:38;;;;;;;8.68;4.70;;;21.40;64.90;;;;;;5027965;28;20061;-82
2023/06/11 11:21:04;;;;;;;6.05;4.47;;;21.30;61.20;;;;;;5029426;28;20426;-82
2023/06/11 11:23:32;;;;;;;5.35;4.43;;;21.10;60.70;;;;;;5030160;28;20060;-82
2023/06/11 11:25:58;;;;;;;6.93;4.68;;;21.50;61.60;;;;;;5027445;28;20045;-82
2023/06/11 11:28:24;;;;;;;6.20;4.57;;;21.70;62.50;;;;;;5008245;28;20050;-82
2023/06/11 11:30:53;;;;;;;6.05;4.25;;;21.70;61.00;;;;;;5009428;28;20417;-82
2023/06/11 11:33:18;;;;;;;4.78;4.38;;;21.60;58.20;;;;;;5027991;28;20124;-82
2023/06/11 11:35:46;;;;;;;5.57;4.85;;;21.70;58.80;;;;;;5028240;28;20467;-82
2023/06/11 11:38:12;;;;;;;5.65;4.40;;;21.70;60.00;;;;;;5027862;28;20022;-82
2023/06/11 11:40:38;;;;;;;6.35;4.28;;;22.00;61.10;;;;;;5027998;28;20021;-82
2023/06/11 11:43:03;;;;;;;8.45;4.90;;;21.80;59.60;;;;;;5027748;28;20033;-82
2023/06/11 11:45:33;;;;;;;5.75;4.18;;;21.60;59.00;;;;;;5027765;28;20036;-81
2023/06/11 11:48:00;;;;;;;5.05;4.47;;;21.50;60.00;;;;;;5026828;28;20030;-83
2023/06/11 11:50:27;;;;;;;6.18;4.45;;;21.60;59.80;;;;;;5027879;28;20042;-83
2023/06/11 11:53:06;;;;;;;5.15;4.45;;;21.60;59.50;;;;;;5027816;28;20044;-82
2023/06/11 11:55:45;;;;;;;5.13;4.63;;;21.50;59.00;;;;;;5027787;28;20026;-82
2023/06/11 11:58:12;;;;;;;5.95;5.15;;;21.80;58.40;;;;;;5029836;28;20049;-82
2023/06/11 12:00:52;;;;;;;8.02;3.97;;;21.80;59.00;;;;;;5029141;28;20486;-82
2023/06/11 12:03:22;;;;;;;5.90;4.22;;;21.40;58.90;;;;;;5032072;28;20042;-82
2023/06/11 12:05:56;;;;;;;5.35;4.70;;;21.50;60.00;;;;;;5032077;28;20032;-83
2023/06/11 12:08:21;;;;;;;6.15;4.63;;;21.90;59.80;;;;;;5031645;28;20030;-83
2023/06/11 12:10:47;;;;;;;6.63;4.25;;;22.10;58.50;;;;;;5031898;28;20033;-82
2023/06/11 12:13:14;;;;;;;6.88;4.70;;;22.30;59.40;;;;;;5032802;28;20394;-82
2023/06/11 12:15:40;;;;;;;5.78;4.82;;;22.60;59.50;;;;;;5030187;28;20119;-83
2023/06/11 12:18:05;;;;;;;5.38;4.20;;;22.60;57.40;;;;;;5032065;28;20486;-83
2023/06/11 12:20:31;;;;;;;4.93;3.97;;;22.50;56.80;;;;;;5032805;28;20367;-83
2023/06/11 12:22:57;;;;;;;5.30;3.95;;;22.40;56.30;;;;;;5031547;28;20106;-83
2023/06/11 12:25:25;;;;;;;6.10;4.10;;;21.80;55.60;;;;;;5033057;28;20052;-83
2023/06/11 12:27:51;;;;;;;5.35;4.85;;;21.40;57.90;;;;;;5032672;28;20028;-83
2023/06/11 12:30:17;;;;;;;6.90;4.20;;;21.30;58.90;;;;;;5034297;28;20036;-82
2023/06/11 12:32:43;;;;;;;4.38;3.97;;;21.60;59.00;;;;;;5032709;28;20534;-82
2023/06/11 12:35:09;;;;;;;5.82;4.00;;;22.00;58.90;;;;;;5031636;28;20523;-83